Conde, Brazil
Current Conditions -  °F | °C
As of 3:00 PM on Monday 26 Jan 2015 (Local Time) from SBJP Reporting Station
Scattered Clouds Scattered Clouds  
Wind Chill: 86°   Ceiling: Unl
Heat Index: 90°   Visibility: 6mi
Dew Point: 70°   Wind: 13mph
Humidity: 58%   Direction: 110°ESE
Pressure: 29.91"   Gusts: NA
Location:  7.26°S, 34.91°W
Report Text: SBJP 261800Z 11011KT 9999 SCT030 30/21 Q1013
Loading
Personal Weather Stations






























Interactive Weather Map New forecast layout! Learn more

10-Day Weather Forecast

Advertisements
Track Severe Weather on mobile